sensor_id;sensor_type;location;lat;lon;timestamp;pressure;altitude;pressure_sealevel;temperature;humidity
47985;BME280;33753;52.912;-7.342;2022-08-03T00:00:34;99592.81;;;16.97;100.00
47985;BME280;33753;52.912;-7.342;2022-08-03T00:03:03;99592.81;;;16.97;100.00
47985;BME280;33753;52.912;-7.342;2022-08-03T00:05:31;99587.25;;;16.92;100.00
47985;BME280;33753;52.912;-7.342;2022-08-03T00:08:01;99592.69;;;16.92;100.00
47985;BME280;33753;52.912;-7.342;2022-08-03T00:10:31;99592.31;;;16.88;100.00
47985;BME280;33753;52.912;-7.342;2022-08-03T00:13:02;99594.81;;;16.90;100.00
47985;BME280;33753;52.912;-7.342;2022-08-03T00:15:31;99594.69;;;16.85;100.00
47985;BME280;33753;52.912;-7.342;2022-08-03T00:17:59;99586.25;;;16.86;100.00
47985;BME280;33753;52.912;-7.342;2022-08-03T00:20:27;99584.94;;;16.89;100.00
47985;BME280;33753;52.912;-7.342;2022-08-03T00:22:55;99589.97;;;16.92;100.00
47985;BME280;33753;52.912;-7.342;2022-08-03T00:25:23;99594.22;;;16.88;100.00
47985;BME280;33753;52.912;-7.342;2022-08-03T00:27:53;99585.41;;;16.86;100.00
47985;BME280;33753;52.912;-7.342;2022-08-03T00:30:23;99588.59;;;16.83;100.00
47985;BME280;33753;52.912;-7.342;2022-08-03T00:32:56;99586.47;;;16.85;100.00
47985;BME280;33753;52.912;-7.342;2022-08-03T00:35:25;99587.88;;;16.87;100.00
47985;BME280;33753;52.912;-7.342;2022-08-03T00:38:14;99589.81;;;16.87;100.00
47985;BME280;33753;52.912;-7.342;2022-08-03T00:40:42;99591.09;;;16.84;100.00
47985;BME280;33753;52.912;-7.342;2022-08-03T00:43:11;99592.38;;;16.82;100.00
47985;BME280;33753;52.912;-7.342;2022-08-03T00:45:40;99591.31;;;16.83;100.00
47985;BME280;33753;52.912;-7.342;2022-08-03T00:48:09;99587.63;;;16.77;100.00
47985;BME280;33753;52.912;-7.342;2022-08-03T00:50:58;99593.72;;;16.79;100.00
47985;BME280;33753;52.912;-7.342;2022-08-03T00:53:26;99586.94;;;16.82;100.00
47985;BME280;33753;52.912;-7.342;2022-08-03T00:55:54;99593.00;;;16.84;100.00
47985;BME280;33753;52.912;-7.342;2022-08-03T00:58:24;99592.38;;;16.82;100.00
47985;BME280;33753;52.912;-7.342;2022-08-03T01:00:52;99590.75;;;16.81;100.00
47985;BME280;33753;52.912;-7.342;2022-08-03T01:03:20;99582.66;;;16.74;100.00
47985;BME280;33753;52.912;-7.342;2022-08-03T01:05:51;99578.47;;;16.71;100.00
47985;BME280;33753;52.912;-7.342;2022-08-03T01:08:21;99577.19;;;16.74;100.00
47985;BME280;33753;52.912;-7.342;2022-08-03T01:10:52;99576.47;;;16.67;100.00
47985;BME280;33753;52.912;-7.342;2022-08-03T01:13:23;99571.34;;;16.70;100.00
47985;BME280;33753;52.912;-7.342;2022-08-03T01:16:14;99579.34;;;16.72;100.00
47985;BME280;33753;52.912;-7.342;2022-08-03T01:18:45;99575.63;;;16.66;100.00
47985;BME280;33753;52.912;-7.342;2022-08-03T01:21:16;99571.22;;;16.65;100.00
47985;BME280;33753;52.912;-7.342;2022-08-03T01:23:56;99585.81;;;16.59;100.00
47985;BME280;33753;52.912;-7.342;2022-08-03T01:26:38;99571.94;;;16.61;100.00
47985;BME280;33753;52.912;-7.342;2022-08-03T01:29:16;99574.28;;;16.57;100.00
47985;BME280;33753;52.912;-7.342;2022-08-03T01:31:50;99568.25;;;16.55;100.00
47985;BME280;33753;52.912;-7.342;2022-08-03T01:34:40;99573.81;;;16.60;100.00
47985;BME280;33753;52.912;-7.342;2022-08-03T01:37:10;99576.53;;;16.60;100.00
47985;BME280;33753;52.912;-7.342;2022-08-03T01:39:40;99581.41;;;16.58;100.00
47985;BME280;33753;52.912;-7.342;2022-08-03T01:42:10;99587.47;;;16.60;100.00
47985;BME280;33753;52.912;-7.342;2022-08-03T01:44:39;99584.97;;;16.58;100.00
47985;BME280;33753;52.912;-7.342;2022-08-03T01:47:09;99598.16;;;16.62;100.00
47985;BME280;33753;52.912;-7.342;2022-08-03T01:49:39;99600.28;;;16.59;100.00
47985;BME280;33753;52.912;-7.342;2022-08-03T01:52:10;99611.91;;;16.55;100.00
47985;BME280;33753;52.912;-7.342;2022-08-03T01:54:41;99603.97;;;16.53;100.00
47985;BME280;33753;52.912;-7.342;2022-08-03T01:57:10;99610.72;;;16.51;100.00
47985;BME280;33753;52.912;-7.342;2022-08-03T01:59:38;99609.97;;;16.44;100.00
47985;BME280;33753;52.912;-7.342;2022-08-03T02:02:08;99610.53;;;16.34;100.00
47985;BME280;33753;52.912;-7.342;2022-08-03T02:04:59;99606.81;;;16.28;100.00
47985;BME280;33753;52.912;-7.342;2022-08-03T02:07:28;99605.63;;;16.24;100.00
47985;BME280;33753;52.912;-7.342;2022-08-03T02:09:57;99608.94;;;16.26;100.00
47985;BME280;33753;52.912;-7.342;2022-08-03T02:12:26;99600.63;;;16.21;100.00
47985;BME280;33753;52.912;-7.342;2022-08-03T02:14:55;99606.63;;;16.11;100.00
47985;BME280;33753;52.912;-7.342;2022-08-03T02:17:27;99593.22;;;16.10;100.00
47985;BME280;33753;52.912;-7.342;2022-08-03T02:20:06;99597.44;;;16.05;100.00
47985;BME280;33753;52.912;-7.342;2022-08-03T02:22:35;99593.50;;;16.01;100.00
47985;BME280;33753;52.912;-7.342;2022-08-03T02:25:06;99595.94;;;15.91;100.00
47985;BME280;33753;52.912;-7.342;2022-08-03T02:27:34;99590.34;;;15.86;100.00
47985;BME280;33753;52.912;-7.342;2022-08-03T02:30:09;99591.44;;;15.78;100.00
47985;BME280;33753;52.912;-7.342;2022-08-03T02:32:41;99583.34;;;15.71;100.00
47985;BME280;33753;52.912;-7.342;2022-08-03T02:35:12;99575.69;;;15.62;100.00
47985;BME280;33753;52.912;-7.342;2022-08-03T02:37:41;99580.00;;;15.51;100.00
47985;BME280;33753;52.912;-7.342;2022-08-03T02:40:16;99581.97;;;15.44;100.00
47985;BME280;33753;52.912;-7.342;2022-08-03T02:42:45;99581.19;;;15.36;100.00
47985;BME280;33753;52.912;-7.342;2022-08-03T02:45:13;99581.47;;;15.28;100.00
47985;BME280;33753;52.912;-7.342;2022-08-03T02:47:44;99586.16;;;15.21;100.00
47985;BME280;33753;52.912;-7.342;2022-08-03T02:50:20;99596.06;;;15.15;100.00
47985;BME280;33753;52.912;-7.342;2022-08-03T02:52:50;99590.84;;;15.14;100.00
47985;BME280;33753;52.912;-7.342;2022-08-03T02:55:19;99600.06;;;15.13;100.00
47985;BME280;33753;52.912;-7.342;2022-08-03T02:57:48;99591.66;;;15.14;100.00
47985;BME280;33753;52.912;-7.342;2022-08-03T03:00:17;99596.88;;;15.16;100.00
47985;BME280;33753;52.912;-7.342;2022-08-03T03:02:56;99604.41;;;15.20;100.00
47985;BME280;33753;52.912;-7.342;2022-08-03T03:05:26;99598.75;;;15.22;100.00
47985;BME280;33753;52.912;-7.342;2022-08-03T03:08:16;99600.38;;;15.23;100.00
47985;BME280;33753;52.912;-7.342;2022-08-03T03:10:51;99599.97;;;15.26;100.00
47985;BME280;33753;52.912;-7.342;2022-08-03T03:13:21;99600.78;;;15.27;100.00
47985;BME280;33753;52.912;-7.342;2022-08-03T03:15:49;99606.91;;;15.22;100.00
47985;BME280;33753;52.912;-7.342;2022-08-03T03:18:20;99598.28;;;15.25;100.00
47985;BME280;33753;52.912;-7.342;2022-08-03T03:20:48;99597.47;;;15.25;100.00
47985;BME280;33753;52.912;-7.342;2022-08-03T03:23:19;99600.84;;;15.20;100.00
47985;BME280;33753;52.912;-7.342;2022-08-03T03:25:48;99601.00;;;15.25;100.00
47985;BME280;33753;52.912;-7.342;2022-08-03T03:28:17;99596.00;;;15.22;100.00
47985;BME280;33753;52.912;-7.342;2022-08-03T03:30:45;99606.91;;;15.22;100.00
47985;BME280;33753;52.912;-7.342;2022-08-03T03:33:20;99604.78;;;15.24;100.00
47985;BME280;33753;52.912;-7.342;2022-08-03T03:35:48;99607.91;;;15.28;100.00
47985;BME280;33753;52.912;-7.342;2022-08-03T03:38:17;99618.41;;;15.24;100.00
47985;BME280;33753;52.912;-7.342;2022-08-03T03:40:45;99624.03;;;15.29;100.00
47985;BME280;33753;52.912;-7.342;2022-08-03T03:43:14;99619.63;;;15.28;100.00
47985;BME280;33753;52.912;-7.342;2022-08-03T03:45:44;99620.41;;;15.35;100.00
47985;BME280;33753;52.912;-7.342;2022-08-03T03:48:13;99625.66;;;15.30;100.00
47985;BME280;33753;52.912;-7.342;2022-08-03T03:50:43;99631.53;;;15.34;100.00
47985;BME280;33753;52.912;-7.342;2022-08-03T03:53:12;99626.06;;;15.34;100.00
47985;BME280;33753;52.912;-7.342;2022-08-03T03:55:41;99632.97;;;15.36;100.00
47985;BME280;33753;52.912;-7.342;2022-08-03T03:58:28;99626.91;;;15.34;100.00
47985;BME280;33753;52.912;-7.342;2022-08-03T04:00:57;99626.75;;;15.29;100.00
47985;BME280;33753;52.912;-7.342;2022-08-03T04:03:26;99635.38;;;15.26;100.00
47985;BME280;33753;52.912;-7.342;2022-08-03T04:05:55;99637.31;;;15.19;100.00
47985;BME280;33753;52.912;-7.342;2022-08-03T04:08:41;99634.00;;;15.10;100.00
47985;BME280;33753;52.912;-7.342;2022-08-03T04:11:28;99640.59;;;15.02;100.00
47985;BME280;33753;52.912;-7.342;2022-08-03T04:13:59;99632.88;;;14.99;100.00
47985;BME280;33753;52.912;-7.342;2022-08-03T04:16:34;99637.06;;;14.95;100.00
47985;BME280;33753;52.912;-7.342;2022-08-03T04:19:09;99624.94;;;14.91;100.00
47985;BME280;33753;52.912;-7.342;2022-08-03T04:21:41;99636.28;;;14.88;100.00
47985;BME280;33753;52.912;-7.342;2022-08-03T04:24:10;99633.22;;;14.78;100.00
47985;BME280;33753;52.912;-7.342;2022-08-03T04:26:40;99630.94;;;14.75;100.00
47985;BME280;33753;52.912;-7.342;2022-08-03T04:29:09;99628.81;;;14.77;100.00
47985;BME280;33753;52.912;-7.342;2022-08-03T04:31:37;99622.13;;;14.79;100.00
47985;BME280;33753;52.912;-7.342;2022-08-03T04:34:07;99623.56;;;14.82;100.00
47985;BME280;33753;52.912;-7.342;2022-08-03T04:36:37;99627.72;;;14.84;100.00
47985;BME280;33753;52.912;-7.342;2022-08-03T04:39:09;99631.75;;;14.82;100.00
47985;BME280;33753;52.912;-7.342;2022-08-03T04:41:40;99629.16;;;14.87;100.00
47985;BME280;33753;52.912;-7.342;2022-08-03T04:44:30;99635.03;;;14.91;100.00
47985;BME280;33753;52.912;-7.342;2022-08-03T04:47:02;99642.53;;;14.95;100.00
47985;BME280;33753;52.912;-7.342;2022-08-03T04:49:30;99638.75;;;14.96;100.00
47985;BME280;33753;52.912;-7.342;2022-08-03T04:51:59;99649.66;;;14.96;100.00
47985;BME280;33753;52.912;-7.342;2022-08-03T04:54:29;99654.00;;;14.97;100.00
47985;BME280;33753;52.912;-7.342;2022-08-03T04:56:58;99664.50;;;15.00;100.00
47985;BME280;33753;52.912;-7.342;2022-08-03T04:59:27;99655.69;;;14.98;100.00
47985;BME280;33753;52.912;-7.342;2022-08-03T05:01:55;99660.75;;;14.95;100.00
47985;BME280;33753;52.912;-7.342;2022-08-03T05:04:24;99662.25;;;14.91;100.00
47985;BME280;33753;52.912;-7.342;2022-08-03T05:06:52;99676.47;;;14.93;100.00
47985;BME280;33753;52.912;-7.342;2022-08-03T05:09:21;99676.91;;;14.90;100.00
47985;BME280;33753;52.912;-7.342;2022-08-03T05:12:11;99676.72;;;14.84;100.00
47985;BME280;33753;52.912;-7.342;2022-08-03T05:14:40;99678.88;;;14.76;100.00
47985;BME280;33753;52.912;-7.342;2022-08-03T05:17:08;99672.81;;;14.74;100.00
47985;BME280;33753;52.912;-7.342;2022-08-03T05:19:36;99681.22;;;14.72;100.00
47985;BME280;33753;52.912;-7.342;2022-08-03T05:22:05;99681.59;;;14.76;100.00
47985;BME280;33753;52.912;-7.342;2022-08-03T05:24:33;99686.56;;;14.85;100.00
47985;BME280;33753;52.912;-7.342;2022-08-03T05:27:01;99686.06;;;15.02;100.00
47985;BME280;33753;52.912;-7.342;2022-08-03T05:29:30;99686.97;;;15.21;100.00
47985;BME280;33753;52.912;-7.342;2022-08-03T05:31:59;99687.03;;;15.40;100.00
47985;BME280;33753;52.912;-7.342;2022-08-03T05:34:34;99684.97;;;15.35;100.00
47985;BME280;33753;52.912;-7.342;2022-08-03T05:37:02;99688.25;;;15.44;100.00
47985;BME280;33753;52.912;-7.342;2022-08-03T05:39:30;99669.41;;;15.42;100.00
47985;BME280;33753;52.912;-7.342;2022-08-03T05:41:58;99678.84;;;15.40;100.00
47985;BME280;33753;52.912;-7.342;2022-08-03T05:44:27;99678.44;;;15.36;100.00
47985;BME280;33753;52.912;-7.342;2022-08-03T05:46:58;99673.91;;;15.30;100.00
47985;BME280;33753;52.912;-7.342;2022-08-03T05:49:26;99675.88;;;15.16;100.00
47985;BME280;33753;52.912;-7.342;2022-08-03T05:51:55;99672.09;;;15.17;100.00
47985;BME280;33753;52.912;-7.342;2022-08-03T05:54:34;99678.66;;;15.34;100.00
47985;BME280;33753;52.912;-7.342;2022-08-03T05:57:22;99685.44;;;15.76;100.00
47985;BME280;33753;52.912;-7.342;2022-08-03T05:59:51;99687.19;;;16.14;100.00
47985;BME280;33753;52.912;-7.342;2022-08-03T06:02:26;99687.97;;;16.51;100.00
47985;BME280;33753;52.912;-7.342;2022-08-03T06:04:54;99690.69;;;17.00;100.00
47985;BME280;33753;52.912;-7.342;2022-08-03T06:07:22;99692.06;;;17.33;100.00
47985;BME280;33753;52.912;-7.342;2022-08-03T06:09:50;99688.22;;;17.76;100.00
47985;BME280;33753;52.912;-7.342;2022-08-03T06:12:38;99684.63;;;18.11;100.00
47985;BME280;33753;52.912;-7.342;2022-08-03T06:15:07;99691.66;;;18.60;100.00
47985;BME280;33753;52.912;-7.342;2022-08-03T06:20:27;99682.88;;;19.49;100.00
47985;BME280;33753;52.912;-7.342;2022-08-03T06:22:56;99677.19;;;19.90;100.00
47985;BME280;33753;52.912;-7.342;2022-08-03T06:25:27;99669.88;;;20.40;100.00
47985;BME280;33753;52.912;-7.342;2022-08-03T06:27:56;99668.09;;;20.51;100.00
47985;BME280;33753;52.912;-7.342;2022-08-03T06:30:25;99670.16;;;20.66;100.00
47985;BME280;33753;52.912;-7.342;2022-08-03T06:32:53;99664.19;;;20.47;100.00
47985;BME280;33753;52.912;-7.342;2022-08-03T06:35:21;99677.75;;;20.09;100.00
47985;BME280;33753;52.912;-7.342;2022-08-03T06:37:51;99675.59;;;20.33;100.00
47985;BME280;33753;52.912;-7.342;2022-08-03T06:40:21;99680.34;;;20.43;100.00
47985;BME280;33753;52.912;-7.342;2022-08-03T06:42:55;99684.19;;;20.42;100.00
47985;BME280;33753;52.912;-7.342;2022-08-03T06:45:24;99677.44;;;20.28;100.00
47985;BME280;33753;52.912;-7.342;2022-08-03T06:47:59;99681.19;;;19.82;100.00
47985;BME280;33753;52.912;-7.342;2022-08-03T06:50:27;99695.97;;;19.47;100.00
47985;BME280;33753;52.912;-7.342;2022-08-03T06:52:57;99691.16;;;19.21;100.00
47985;BME280;33753;52.912;-7.342;2022-08-03T06:55:25;99678.34;;;19.60;100.00
47985;BME280;33753;52.912;-7.342;2022-08-03T06:57:54;99690.16;;;19.95;100.00
47985;BME280;33753;52.912;-7.342;2022-08-03T07:00:29;99678.06;;;20.35;100.00
47985;BME280;33753;52.912;-7.342;2022-08-03T07:02:57;99675.78;;;20.98;100.00
47985;BME280;33753;52.912;-7.342;2022-08-03T07:05:26;99678.28;;;21.32;100.00
47985;BME280;33753;52.912;-7.342;2022-08-03T07:07:57;99674.59;;;21.86;100.00
47985;BME280;33753;52.912;-7.342;2022-08-03T07:10:27;99669.84;;;21.82;100.00
47985;BME280;33753;52.912;-7.342;2022-08-03T07:12:55;99668.13;;;21.70;100.00
47985;BME280;33753;52.912;-7.342;2022-08-03T07:15:23;99666.13;;;20.96;100.00
47985;BME280;33753;52.912;-7.342;2022-08-03T07:18:12;99674.94;;;21.30;100.00
47985;BME280;33753;52.912;-7.342;2022-08-03T07:20:40;99679.31;;;21.26;100.00
47985;BME280;33753;52.912;-7.342;2022-08-03T07:23:10;99681.06;;;21.37;100.00
47985;BME280;33753;52.912;-7.342;2022-08-03T07:25:45;99683.38;;;21.18;100.00
47985;BME280;33753;52.912;-7.342;2022-08-03T07:28:13;99681.69;;;21.12;100.00
47985;BME280;33753;52.912;-7.342;2022-08-03T07:30:41;99671.34;;;20.97;100.00
47985;BME280;33753;52.912;-7.342;2022-08-03T07:33:09;99680.31;;;20.87;100.00
47985;BME280;33753;52.912;-7.342;2022-08-03T07:35:38;99678.44;;;21.20;100.00
47985;BME280;33753;52.912;-7.342;2022-08-03T07:38:06;99671.59;;;21.55;100.00
47985;BME280;33753;52.912;-7.342;2022-08-03T07:40:36;99677.66;;;21.95;100.00
47985;BME280;33753;52.912;-7.342;2022-08-03T07:43:11;99679.91;;;22.56;100.00
47985;BME280;33753;52.912;-7.342;2022-08-03T07:45:39;99679.47;;;23.16;100.00
47985;BME280;33753;52.912;-7.342;2022-08-03T07:48:08;99681.16;;;23.58;100.00
47985;BME280;33753;52.912;-7.342;2022-08-03T07:50:38;99677.50;;;24.04;100.00
47985;BME280;33753;52.912;-7.342;2022-08-03T07:53:06;99682.97;;;24.25;100.00
47985;BME280;33753;52.912;-7.342;2022-08-03T07:55:36;99685.19;;;24.88;100.00
47985;BME280;33753;52.912;-7.342;2022-08-03T07:58:04;99687.16;;;24.82;100.00
47985;BME280;33753;52.912;-7.342;2022-08-03T08:00:35;99677.53;;;25.14;100.00
47985;BME280;33753;52.912;-7.342;2022-08-03T08:03:03;99678.41;;;25.10;100.00
47985;BME280;33753;52.912;-7.342;2022-08-03T08:05:32;99680.72;;;25.37;100.00
47985;BME280;33753;52.912;-7.342;2022-08-03T08:08:01;99690.44;;;25.29;100.00
47985;BME280;33753;52.912;-7.342;2022-08-03T08:10:29;99705.16;;;24.80;100.00
47985;BME280;33753;52.912;-7.342;2022-08-03T08:12:59;99714.69;;;24.38;100.00
47985;BME280;33753;52.912;-7.342;2022-08-03T08:15:28;99712.59;;;23.98;100.00
47985;BME280;33753;52.912;-7.342;2022-08-03T08:17:57;99712.63;;;23.78;100.00
47985;BME280;33753;52.912;-7.342;2022-08-03T08:20:27;99717.59;;;23.55;100.00
47985;BME280;33753;52.912;-7.342;2022-08-03T08:22:57;99715.78;;;22.77;100.00
47985;BME280;33753;52.912;-7.342;2022-08-03T08:25:27;99714.38;;;22.64;100.00
47985;BME280;33753;52.912;-7.342;2022-08-03T08:27:56;99710.50;;;22.60;100.00
47985;BME280;33753;52.912;-7.342;2022-08-03T08:30:46;99707.44;;;22.51;100.00
47985;BME280;33753;52.912;-7.342;2022-08-03T08:33:14;99710.72;;;22.48;100.00
47985;BME280;33753;52.912;-7.342;2022-08-03T08:35:50;99723.06;;;22.35;100.00
47985;BME280;33753;52.912;-7.342;2022-08-03T08:38:18;99722.66;;;22.16;100.00
47985;BME280;33753;52.912;-7.342;2022-08-03T08:40:47;99720.94;;;21.62;100.00
47985;BME280;33753;52.912;-7.342;2022-08-03T08:43:15;99728.56;;;21.28;100.00
47985;BME280;33753;52.912;-7.342;2022-08-03T08:45:47;99726.41;;;21.30;100.00
47985;BME280;33753;52.912;-7.342;2022-08-03T08:48:17;99731.47;;;21.16;100.00
47985;BME280;33753;52.912;-7.342;2022-08-03T08:50:51;99735.44;;;20.98;100.00
47985;BME280;33753;52.912;-7.342;2022-08-03T08:53:20;99736.56;;;20.58;100.00
47985;BME280;33753;52.912;-7.342;2022-08-03T08:55:54;99738.34;;;20.25;100.00
47985;BME280;33753;52.912;-7.342;2022-08-03T08:58:27;99741.38;;;20.45;100.00
47985;BME280;33753;52.912;-7.342;2022-08-03T09:00:58;99732.09;;;20.51;100.00
47985;BME280;33753;52.912;-7.342;2022-08-03T09:03:26;99733.19;;;20.50;100.00
47985;BME280;33753;52.912;-7.342;2022-08-03T09:05:56;99737.28;;;20.48;100.00
47985;BME280;33753;52.912;-7.342;2022-08-03T09:08:25;99736.25;;;20.98;100.00
47985;BME280;33753;52.912;-7.342;2022-08-03T09:10:53;99727.44;;;21.23;100.00
47985;BME280;33753;52.912;-7.342;2022-08-03T09:13:21;99732.59;;;21.47;100.00
47985;BME280;33753;52.912;-7.342;2022-08-03T09:16:04;99730.28;;;21.61;100.00
47985;BME280;33753;52.912;-7.342;2022-08-03T09:18:35;99727.69;;;21.49;100.00
47985;BME280;33753;52.912;-7.342;2022-08-03T09:21:17;99723.91;;;21.55;100.00
47985;BME280;33753;52.912;-7.342;2022-08-03T09:24:03;99719.47;;;21.54;100.00
47985;BME280;33753;52.912;-7.342;2022-08-03T09:26:48;99729.03;;;21.47;100.00
47985;BME280;33753;52.912;-7.342;2022-08-03T09:29:19;99726.47;;;21.40;100.00
47985;BME280;33753;52.912;-7.342;2022-08-03T09:31:49;99722.75;;;21.24;100.00
47985;BME280;33753;52.912;-7.342;2022-08-03T09:34:27;99732.94;;;21.23;100.00
47985;BME280;33753;52.912;-7.342;2022-08-03T09:36:55;99727.69;;;21.49;100.00
47985;BME280;33753;52.912;-7.342;2022-08-03T09:39:25;99738.22;;;21.57;100.00
47985;BME280;33753;52.912;-7.342;2022-08-03T09:42:08;99738.81;;;21.65;100.00
47985;BME280;33753;52.912;-7.342;2022-08-03T09:44:41;99740.47;;;21.66;100.00
47985;BME280;33753;52.912;-7.342;2022-08-03T09:47:12;99736.00;;;21.54;100.00
47985;BME280;33753;52.912;-7.342;2022-08-03T09:49:40;99745.22;;;21.43;100.00
47985;BME280;33753;52.912;-7.342;2022-08-03T09:52:13;99738.44;;;21.23;100.00
47985;BME280;33753;52.912;-7.342;2022-08-03T09:55:07;99745.94;;;21.06;100.00
47985;BME280;33753;52.912;-7.342;2022-08-03T09:58:02;99738.56;;;20.84;100.00
47985;BME280;33753;52.912;-7.342;2022-08-03T10:00:31;99744.31;;;20.83;100.00
47985;BME280;33753;52.912;-7.342;2022-08-03T10:03:03;99744.97;;;20.90;100.00
47985;BME280;33753;52.912;-7.342;2022-08-03T10:05:32;99747.50;;;20.97;100.00
47985;BME280;33753;52.912;-7.342;2022-08-03T10:08:09;99755.66;;;20.86;100.00
47985;BME280;33753;52.912;-7.342;2022-08-03T10:10:41;99759.47;;;20.85;100.00
47985;BME280;33753;52.912;-7.342;2022-08-03T10:13:10;99761.63;;;20.83;100.00
47985;BME280;33753;52.912;-7.342;2022-08-03T10:15:40;99763.47;;;20.55;100.00
47985;BME280;33753;52.912;-7.342;2022-08-03T10:18:30;99765.88;;;20.69;100.00
47985;BME280;33753;52.912;-7.342;2022-08-03T10:20:59;99766.69;;;20.92;100.00
47985;BME280;33753;52.912;-7.342;2022-08-03T10:23:31;99763.31;;;21.39;100.00
47985;BME280;33753;52.912;-7.342;2022-08-03T10:26:02;99762.88;;;22.17;100.00
47985;BME280;33753;52.912;-7.342;2022-08-03T10:28:32;99756.56;;;22.70;100.00
47985;BME280;33753;52.912;-7.342;2022-08-03T10:31:07;99746.25;;;23.13;100.00
47985;BME280;33753;52.912;-7.342;2022-08-03T10:33:40;99754.00;;;23.32;100.00
47985;BME280;33753;52.912;-7.342;2022-08-03T10:36:19;99747.94;;;23.35;100.00
47985;BME280;33753;52.912;-7.342;2022-08-03T10:38:50;99750.16;;;23.79;100.00
47985;BME280;33753;52.912;-7.342;2022-08-03T10:41:19;99748.22;;;24.10;100.00
47985;BME280;33753;52.912;-7.342;2022-08-03T10:43:49;99746.03;;;24.02;100.00
47985;BME280;33753;52.912;-7.342;2022-08-03T10:46:18;99743.53;;;24.01;100.00
47985;BME280;33753;52.912;-7.342;2022-08-03T10:48:49;99746.84;;;23.61;100.00
47985;BME280;33753;52.912;-7.342;2022-08-03T10:51:19;99747.66;;;23.36;100.00
47985;BME280;33753;52.912;-7.342;2022-08-03T10:53:48;99749.22;;;23.01;100.00
47985;BME280;33753;52.912;-7.342;2022-08-03T10:56:37;99761.03;;;22.81;100.00
47985;BME280;33753;52.912;-7.342;2022-08-03T11:02:11;99769.44;;;22.49;100.00
47985;BME280;33753;52.912;-7.342;2022-08-03T11:04:41;99778.50;;;22.44;100.00
47985;BME280;33753;52.912;-7.342;2022-08-03T11:07:17;99782.28;;;22.33;100.00
47985;BME280;33753;52.912;-7.342;2022-08-03T11:09:47;99783.28;;;22.21;100.00
47985;BME280;33753;52.912;-7.342;2022-08-03T11:12:20;99777.81;;;22.26;100.00
47985;BME280;33753;52.912;-7.342;2022-08-03T11:14:57;99779.59;;;22.43;100.00
47985;BME280;33753;52.912;-7.342;2022-08-03T11:17:26;99786.84;;;22.59;100.00
47985;BME280;33753;52.912;-7.342;2022-08-03T11:19:56;99786.31;;;22.63;100.00
47985;BME280;33753;52.912;-7.342;2022-08-03T11:22:24;99781.63;;;22.63;100.00
47985;BME280;33753;52.912;-7.342;2022-08-03T11:24:58;99782.97;;;22.60;100.00
47985;BME280;33753;52.912;-7.342;2022-08-03T11:27:27;99784.66;;;22.61;100.00
47985;BME280;33753;52.912;-7.342;2022-08-03T11:29:57;99782.69;;;22.57;100.00
47985;BME280;33753;52.912;-7.342;2022-08-03T11:35:16;99784.69;;;22.24;100.00
47985;BME280;33753;52.912;-7.342;2022-08-03T11:38:04;99790.91;;;22.09;100.00
47985;BME280;33753;52.912;-7.342;2022-08-03T11:40:34;99792.84;;;21.71;100.00
47985;BME280;33753;52.912;-7.342;2022-08-03T11:43:04;99795.72;;;21.86;100.00
47985;BME280;33753;52.912;-7.342;2022-08-03T11:45:32;99795.63;;;21.76;100.00
47985;BME280;33753;52.912;-7.342;2022-08-03T11:48:02;99798.81;;;21.63;100.00
47985;BME280;33753;52.912;-7.342;2022-08-03T11:50:41;99800.22;;;21.38;100.00
47985;BME280;33753;52.912;-7.342;2022-08-03T11:53:14;99811.59;;;21.24;100.00
47985;BME280;33753;52.912;-7.342;2022-08-03T11:55:44;99820.81;;;21.13;100.00
47985;BME280;33753;52.912;-7.342;2022-08-03T11:58:15;99828.59;;;20.94;100.00
47985;BME280;33753;52.912;-7.342;2022-08-03T12:01:04;99831.38;;;20.38;100.00
47985;BME280;33753;52.912;-7.342;2022-08-03T12:03:33;99833.19;;;20.49;100.00
47985;BME280;33753;52.912;-7.342;2022-08-03T12:06:03;99833.19;;;20.49;100.00
47985;BME280;33753;52.912;-7.342;2022-08-03T12:08:35;99824.13;;;20.32;100.00
47985;BME280;33753;52.912;-7.342;2022-08-03T12:11:04;99829.03;;;20.47;100.00
47985;BME280;33753;52.912;-7.342;2022-08-03T12:13:37;99837.84;;;20.49;100.00
47985;BME280;33753;52.912;-7.342;2022-08-03T12:16:25;99835.47;;;20.58;100.00
47985;BME280;33753;52.912;-7.342;2022-08-03T12:18:56;99838.00;;;20.59;100.00
47985;BME280;33753;52.912;-7.342;2022-08-03T12:21:26;99850.31;;;20.74;100.00
47985;BME280;33753;52.912;-7.342;2022-08-03T12:23:57;99848.28;;;21.08;100.00
47985;BME280;33753;52.912;-7.342;2022-08-03T12:26:26;99841.81;;;21.19;100.00
47985;BME280;33753;52.912;-7.342;2022-08-03T12:28:56;99845.09;;;21.16;100.00
47985;BME280;33753;52.912;-7.342;2022-08-03T12:31:25;99837.47;;;21.23;100.00
47985;BME280;33753;52.912;-7.342;2022-08-03T12:33:54;99834.22;;;21.32;100.00
47985;BME280;33753;52.912;-7.342;2022-08-03T12:36:22;99834.22;;;21.32;100.00
47985;BME280;33753;52.912;-7.342;2022-08-03T12:38:54;99844.56;;;21.69;100.00
47985;BME280;33753;52.912;-7.342;2022-08-03T12:41:27;99838.66;;;22.20;100.00
47985;BME280;33753;52.912;-7.342;2022-08-03T12:43:55;99834.84;;;22.69;100.00
47985;BME280;33753;52.912;-7.342;2022-08-03T12:46:28;99832.88;;;23.12;100.00
47985;BME280;33753;52.912;-7.342;2022-08-03T12:48:57;99835.13;;;23.30;100.00
47985;BME280;33753;52.912;-7.342;2022-08-03T12:51:25;99837.88;;;23.25;100.00
47985;BME280;33753;52.912;-7.342;2022-08-03T12:53:55;99837.38;;;23.39;100.00
47985;BME280;33753;52.912;-7.342;2022-08-03T12:56:24;99833.50;;;23.29;100.00
47985;BME280;33753;52.912;-7.342;2022-08-03T12:58:52;99832.94;;;23.33;100.00
47985;BME280;33753;52.912;-7.342;2022-08-03T13:01:21;99846.44;;;23.24;100.00
47985;BME280;33753;52.912;-7.342;2022-08-03T13:03:53;99839.50;;;23.16;100.00
47985;BME280;33753;52.912;-7.342;2022-08-03T13:06:22;99840.06;;;23.23;100.00
47985;BME280;33753;52.912;-7.342;2022-08-03T13:09:02;99844.56;;;23.50;100.00
47985;BME280;33753;52.912;-7.342;2022-08-03T13:11:31;99835.78;;;23.74;100.00